createdAt,value
2023-03-27T00:01:13.548Z,100.00
2023-03-27T00:06:36.681Z,100.00
2023-03-27T00:11:59.611Z,100.00
2023-03-27T00:17:22.389Z,100.00
2023-03-27T00:22:44.632Z,100.00
2023-03-27T00:28:08.745Z,100.00
2023-03-27T00:33:31.668Z,100.00
2023-03-27T00:38:54.490Z,100.00
2023-03-27T00:44:36.484Z,100.00
2023-03-27T00:50:00.804Z,100.00
2023-03-27T00:55:26.461Z,100.00
2023-03-27T01:00:50.470Z,100.00
2023-03-27T01:06:14.727Z,100.00
2023-03-27T01:12:17.463Z,100.00
2023-03-27T01:17:59.506Z,100.00
2023-03-27T01:29:59.831Z,100.00
2023-03-27T01:36:09.293Z,100.00
2023-03-27T01:41:50.228Z,100.00
2023-03-27T01:47:20.470Z,100.00
2023-03-27T01:53:09.662Z,100.00
2023-03-27T01:58:48.342Z,100.00
2023-03-27T02:04:15.306Z,100.00
2023-03-27T02:09:51.578Z,100.00
2023-03-27T02:15:25.168Z,100.00
2023-03-27T02:20:48.720Z,100.00
2023-03-27T02:26:13.757Z,100.00
2023-03-27T02:31:59.460Z,100.00
2023-03-27T02:37:33.128Z,100.00
2023-03-27T02:43:24.989Z,100.00
2023-03-27T02:48:57.223Z,100.00
2023-03-27T02:54:30.548Z,100.00
2023-03-27T02:59:57.882Z,100.00
2023-03-27T03:05:25.406Z,100.00
2023-03-27T03:10:51.356Z,100.00
2023-03-27T03:16:14.407Z,100.00
2023-03-27T03:21:38.133Z,100.00
2023-03-27T03:27:00.869Z,100.00
2023-03-27T03:32:23.590Z,100.00
2023-03-27T03:37:49.547Z,100.00
2023-03-27T03:43:12.193Z,100.00
2023-03-27T03:48:35.194Z,100.00
2023-03-27T03:53:57.616Z,100.00
2023-03-27T03:59:22.066Z,100.00
2023-03-27T04:04:46.582Z,100.00
2023-03-27T04:10:09.465Z,100.00
2023-03-27T04:15:32.697Z,93.22
2023-03-27T04:20:55.530Z,86.24
2023-03-27T04:26:19.509Z,82.48
2023-03-27T04:31:43.427Z,80.79
2023-03-27T04:37:06.279Z,80.17
2023-03-27T04:42:29.019Z,79.93
2023-03-27T04:47:52.151Z,80.02
2023-03-27T04:53:14.460Z,80.03
2023-03-27T04:58:38.043Z,79.71
2023-03-27T05:04:02.682Z,79.12
2023-03-27T05:09:26.046Z,78.68
2023-03-27T05:14:49.002Z,78.17
2023-03-27T05:20:21.332Z,77.86
2023-03-27T05:25:59.770Z,77.66
2023-03-27T05:31:11.674Z,77.62
2023-03-27T05:36:35.800Z,77.71
2023-03-27T05:41:58.406Z,77.88
2023-03-27T05:47:21.196Z,77.95
2023-03-27T05:52:43.663Z,77.97
2023-03-27T05:58:07.782Z,77.98
2023-03-27T06:03:47.719Z,77.03
2023-03-27T06:09:10.250Z,78.15
2023-03-27T06:14:32.507Z,79.01
2023-03-27T06:19:55.467Z,80.07
2023-03-27T06:25:18.035Z,80.88
2023-03-27T06:30:42.427Z,81.37
2023-03-27T06:36:05.791Z,81.62
2023-03-27T06:41:30.922Z,81.48
2023-03-27T06:46:53.309Z,80.93
2023-03-27T06:52:16.174Z,79.97
2023-03-27T06:57:38.618Z,78.06
2023-03-27T07:03:03.055Z,76.84
2023-03-27T07:08:28.421Z,76.32
2023-03-27T07:13:50.835Z,76.27
2023-03-27T07:19:13.156Z,75.99
2023-03-27T07:24:35.461Z,74.98
2023-03-27T07:29:59.709Z,72.61
2023-03-27T07:35:22.296Z,69.47
2023-03-27T07:40:46.483Z,67.49
2023-03-27T07:46:09.522Z,66.02
2023-03-27T07:51:33.267Z,63.67
2023-03-27T07:56:55.706Z,62.60
2023-03-27T08:02:18.062Z,62.15
2023-03-27T08:07:45.571Z,62.61
2023-03-27T08:13:08.784Z,62.38
2023-03-27T08:18:31.244Z,62.60
2023-03-27T08:23:57.844Z,62.48
2023-03-27T08:29:21.331Z,62.20
2023-03-27T08:34:43.921Z,62.63
2023-03-27T08:40:10.804Z,63.53
2023-03-27T08:45:43.880Z,63.68
2023-03-27T08:51:22.998Z,63.93
2023-03-27T08:56:45.780Z,63.33
2023-03-27T09:02:59.624Z,62.12
2023-03-27T09:08:25.869Z,61.04
2023-03-27T09:13:54.053Z,59.70
2023-03-27T09:19:55.961Z,60.07
2023-03-27T09:25:25.789Z,59.58
2023-03-27T09:30:51.850Z,58.48
2023-03-27T09:36:24.879Z,57.54
2023-03-27T09:41:55.757Z,57.45
2023-03-27T09:47:23.054Z,57.09
2023-03-27T09:52:49.097Z,57.96
2023-03-27T09:58:39.271Z,59.53
2023-03-27T10:04:07.801Z,59.76
2023-03-27T10:09:48.989Z,57.92
2023-03-27T10:20:49.753Z,57.56
2023-03-27T10:26:17.589Z,57.23
2023-03-27T10:31:45.713Z,58.34
2023-03-27T10:37:12.270Z,59.84
2023-03-27T10:42:37.525Z,59.20
2023-03-27T10:48:04.524Z,58.29
2023-03-27T10:53:40.927Z,57.12
2023-03-27T10:59:28.204Z,63.55
2023-03-27T11:04:54.781Z,67.67
2023-03-27T11:10:29.966Z,69.89
2023-03-27T11:16:17.532Z,71.38
2023-03-27T11:21:56.580Z,71.92
2023-03-27T11:27:32.850Z,69.91
2023-03-27T11:33:17.559Z,66.24
2023-03-27T11:38:51.669Z,61.48
2023-03-27T11:44:15.783Z,55.99
2023-03-27T11:50:11.577Z,52.93
2023-03-27T11:55:49.517Z,52.42
2023-03-27T12:01:37.862Z,51.64
2023-03-27T12:07:23.625Z,50.76
2023-03-27T12:13:03.303Z,51.87
2023-03-27T12:19:20.993Z,52.68
2023-03-27T12:24:57.415Z,53.75
2023-03-27T12:30:49.195Z,53.56
2023-03-27T12:36:16.478Z,50.88
2023-03-27T12:41:49.730Z,51.05
2023-03-27T12:47:32.028Z,56.81
2023-03-27T12:52:58.039Z,61.51
2023-03-27T12:58:24.393Z,63.07
2023-03-27T13:04:07.597Z,61.38
2023-03-27T13:10:12.954Z,59.61
2023-03-27T13:16:08.942Z,60.31
2023-03-27T13:22:00.094Z,59.78
2023-03-27T13:27:58.140Z,58.49
2023-03-27T13:33:40.201Z,59.66
2023-03-27T13:39:13.907Z,60.02
2023-03-27T13:45:08.076Z,60.35
2023-03-27T13:50:59.471Z,60.70
2023-03-27T13:56:55.642Z,60.39
2023-03-27T14:02:41.612Z,58.24
2023-03-27T14:08:37.142Z,60.51
2023-03-27T14:14:27.236Z,63.11
2023-03-27T14:20:22.544Z,68.85
2023-03-27T14:25:52.164Z,70.48
2023-03-27T14:31:19.707Z,63.60
2023-03-27T14:36:49.587Z,57.37
2023-03-27T14:42:18.097Z,54.76
2023-03-27T14:47:43.562Z,55.40
2023-03-27T14:53:09.706Z,49.97
2023-03-27T14:58:35.558Z,49.89
2023-03-27T15:03:58.522Z,51.37
2023-03-27T15:09:26.895Z,46.80
2023-03-27T15:14:52.005Z,42.74
2023-03-27T15:20:20.843Z,41.12
2023-03-27T15:26:03.759Z,39.81
2023-03-27T15:31:29.222Z,38.89
2023-03-27T15:36:55.280Z,37.07
2023-03-27T15:42:28.567Z,37.49
2023-03-27T15:47:51.573Z,38.00
2023-03-27T15:53:15.244Z,37.11
2023-03-27T15:58:48.343Z,36.78
2023-03-27T16:04:19.679Z,36.38
2023-03-27T16:09:49.765Z,37.02
2023-03-27T16:15:16.383Z,37.64
2023-03-27T16:20:45.964Z,37.32
2023-03-27T16:26:08.769Z,37.57
2023-03-27T16:31:36.184Z,38.49
2023-03-27T16:36:59.942Z,39.52
2023-03-27T16:42:26.493Z,40.80
2023-03-27T16:47:53.146Z,41.56
2023-03-27T16:53:14.244Z,42.54
2023-03-27T16:58:36.829Z,44.61
2023-03-27T17:03:59.456Z,45.84
2023-03-27T17:09:23.478Z,46.57
2023-03-27T17:14:46.287Z,47.38
2023-03-27T17:20:09.427Z,47.79
2023-03-27T17:25:31.772Z,48.33
2023-03-27T17:31:04.021Z,49.23
2023-03-27T17:36:38.786Z,49.97
2023-03-27T17:41:51.125Z,50.63
2023-03-27T17:47:13.882Z,51.39
2023-03-27T17:52:36.294Z,52.54
2023-03-27T17:58:08.748Z,54.01
2023-03-27T18:03:23.641Z,54.69
2023-03-27T18:08:47.158Z,55.33
2023-03-27T18:14:09.662Z,56.39
2023-03-27T18:19:32.866Z,57.39
2023-03-27T18:24:55.323Z,58.08
2023-03-27T18:30:19.201Z,58.63
2023-03-27T18:35:43.173Z,59.08
2023-03-27T18:41:07.273Z,59.72
2023-03-27T18:46:29.946Z,60.36
2023-03-27T18:51:52.718Z,60.46
2023-03-27T18:57:17.891Z,60.20
2023-03-27T19:02:41.851Z,59.67
2023-03-27T19:08:04.241Z,59.86
2023-03-27T19:13:26.544Z,60.04
2023-03-27T19:18:50.084Z,60.60
2023-03-27T19:24:12.585Z,61.61
2023-03-27T19:29:36.053Z,63.37
2023-03-27T19:34:58.426Z,64.66
2023-03-27T19:40:21.906Z,65.30
2023-03-27T19:45:46.014Z,66.20
2023-03-27T19:51:18.604Z,67.02
2023-03-27T19:56:35.575Z,67.96
2023-03-27T20:01:58.081Z,68.29
2023-03-27T20:07:20.997Z,68.22
2023-03-27T20:12:44.268Z,68.53
2023-03-27T20:18:06.667Z,69.19
2023-03-27T20:23:31.658Z,69.65
2023-03-27T20:28:54.431Z,70.04
2023-03-27T20:34:20.179Z,70.78
2023-03-27T20:39:47.575Z,71.28
2023-03-27T20:45:11.652Z,71.37
2023-03-27T20:50:36.229Z,71.53
2023-03-27T20:56:05.538Z,71.56
2023-03-27T21:01:29.575Z,71.83
2023-03-27T21:06:55.624Z,72.14
2023-03-27T21:12:18.310Z,72.14
2023-03-27T21:17:40.779Z,72.24
2023-03-27T21:23:03.061Z,72.39
2023-03-27T21:28:25.925Z,73.09
2023-03-27T21:33:48.675Z,73.58
2023-03-27T21:39:11.102Z,73.80
2023-03-27T21:44:33.343Z,73.91
2023-03-27T21:49:55.740Z,74.26
2023-03-27T21:55:18.049Z,74.70
2023-03-27T22:00:40.308Z,74.81
2023-03-27T22:11:26.587Z,75.96
2023-03-27T22:16:48.874Z,76.34
2023-03-27T22:22:11.180Z,76.37
2023-03-27T22:27:33.518Z,76.40
2023-03-27T22:32:55.850Z,76.73
2023-03-27T22:38:18.144Z,77.03
2023-03-27T22:43:41.940Z,77.09
2023-03-27T22:49:08.551Z,77.24
2023-03-27T22:54:31.730Z,77.39
2023-03-27T22:59:54.233Z,77.13
2023-03-27T23:05:16.729Z,76.58
2023-03-27T23:10:40.076Z,75.77
2023-03-27T23:16:03.019Z,74.61
2023-03-27T23:21:26.881Z,73.47
2023-03-27T23:26:49.365Z,72.63
2023-03-27T23:32:12.347Z,72.37
2023-03-27T23:37:35.552Z,72.36
2023-03-27T23:42:57.786Z,72.25
2023-03-27T23:48:20.028Z,72.06
2023-03-27T23:53:43.464Z,72.03
2023-03-27T23:59:05.688Z,72.40
